Hauptseite
METAR-TAF:

METAR-TAF

Flughäfen :

Tripolis, Libyen

Mitiga International Airport

Breite: 32-54N, Länge: 13-17E, Höhe: 11 m

Beobachtung

Neuester Wetterbericht von vor 1 Stunde und 20 Minuten, um 10:50 UTC
Wind 10 kt aus Ost
Temperatur 28°C
Luftfeuchtigkeit 45%
Luftdruck 1017 hPa
Sichtweite: 8000 m
Himmel klar

METAR: HLLM 221050Z 08010KT 8000 SKC 28/15 Q1017

Zeit: 14:10 (12:10 UTC)

Prognose

Neuester Wetterbericht von vor 19 Stunden und 10 Minuten, um 17:00 UTC
Gültige Prognose vom 21 um 18 UTC bis 22 um 18 UTC
Wind 10 kt aus Ost
Sichtweite 10 km oder mehr
Leicht bewölkt in der Höhe von 2500 ft
Übergehend zu
vom 22 um 00 UTC bis 22 um 02 UTC
Wind 2 kt aus unterschiedlichen Richtungen
Übergehend zu
vom 22 um 10 UTC bis 22 um 12 UTC
Wind 14 kt aus Ost/Nordost

TAF: HLLM 211700Z 2118/2218 09010KT 9999 FEW025 BECMG 2200/2202 VRB02KT BECMG 2210/2212 06014KT

Wetterbeobachtungen und Prognosen von mehr als 4000 Flughäfen (METAR und TAF Bericht).

Die verfügbaren Stationen werden durch gelbe und rote Markierungen auf der Karte dargestellt.

Führen Sie die Maus auf sie, um den Namen der Station zu sehen.

Darauf klicken, um die Beobachtung von Wetterbeobachtungen und Prognosen zu sehen.

Um die Karte zu ändern : klicken Sie auf den grünen Tasten mit einem schwarzen Kreuz Zum Vergrößern, auf den grünen Button mit einem Gedankenstrich zu verkleinern, oder auf die grünen Pfeile für benachbarte Karten.


METAR-TAF: